Powell, Nebraska
Current Conditions -  °F | °C
As of 2:55 AM on Friday 24 Oct 2014 (Local Time) from KHJH Reporting Station
Haze Haze  
Wind Chill: 60°   Ceiling: Unl
Heat Index: 60°   Visibility: 5mi
Dew Point: 56°   Wind: 6mph
Humidity: 88%   Direction: 200°SSW
Pressure: 30"   Gusts: NA
Location:  40.1696°N, 97.2152°W
Report Text: KHJH 240755Z AUTO 20005KT 5SM BR CLR 16/14 A3000 RMK AO2 T01560136
Loading
Personal Weather Stations






























Interactive Weather Map
Tropical Storm Tracking
New forecast layout! Learn more

10-Day Weather Forecast

Advertisements
Track Severe Weather on mobile